Terminal Aerodrome Forecast
Issued by NWS

Home | Current Version | Previous Version | Graphics & Text | Print | Product List | Glossary On
Versions: 1 2 3 4 5 6 7 8 9 10 11 12 13 14 15 16 17 18 19
000
FTUS43 KTOP 211700
TAFFOE
TAF
KFOE 211720Z 2118/2218 32012KT P6SM SCT015 BKN100
      TEMPO 2118/2121 4SM -SHRA BKN015 OVC100
     FM212300 35007KT P6SM FEW050
     FM221500 07006KT P6SM SKC=

USA.gov is the U.S. government's official web portal to all federal, state and local government web resources and services.